sensor_id;sensor_type;location;lat;lon;timestamp;pressure;altitude;pressure_sealevel;temperature;humidity
69667;BME280;66534;52.370;4.832;2023-04-27T00:00:28;102147.81;;;7.48;100.00
69667;BME280;66534;52.370;4.832;2023-04-27T00:00:59;102150.41;;;7.47;100.00
69667;BME280;66534;52.370;4.832;2023-04-27T00:01:29;102148.84;;;7.31;100.00
69667;BME280;66534;52.370;4.832;2023-04-27T00:02:00;102141.78;;;7.40;100.00
69667;BME280;66534;52.370;4.832;2023-04-27T00:02:31;102142.47;;;7.58;100.00
69667;BME280;66534;52.370;4.832;2023-04-27T00:03:01;102141.53;;;7.63;100.00
69667;BME280;66534;52.370;4.832;2023-04-27T00:03:34;102144.94;;;7.70;100.00
69667;BME280;66534;52.370;4.832;2023-04-27T00:04:05;102139.69;;;7.71;100.00
69667;BME280;66534;52.370;4.832;2023-04-27T00:04:36;102138.13;;;7.57;100.00
69667;BME280;66534;52.370;4.832;2023-04-27T00:05:06;102143.34;;;7.57;100.00
69667;BME280;66534;52.370;4.832;2023-04-27T00:05:37;102140.63;;;7.66;100.00
69667;BME280;66534;52.370;4.832;2023-04-27T00:06:08;102147.53;;;7.71;100.00
69667;BME280;66534;52.370;4.832;2023-04-27T00:06:38;102141.50;;;7.65;100.00
69667;BME280;66534;52.370;4.832;2023-04-27T00:07:09;102135.59;;;7.47;100.00
69667;BME280;66534;52.370;4.832;2023-04-27T00:07:39;102143.56;;;7.35;100.00
69667;BME280;66534;52.370;4.832;2023-04-27T00:08:10;102141.69;;;7.48;100.00
69667;BME280;66534;52.370;4.832;2023-04-27T00:08:40;102140.75;;;7.57;100.00
69667;BME280;66534;52.370;4.832;2023-04-27T00:09:11;102142.47;;;7.58;100.00
69667;BME280;66534;52.370;4.832;2023-04-27T00:09:41;102145.09;;;7.55;100.00
69667;BME280;66534;52.370;4.832;2023-04-27T00:10:11;102142.34;;;7.67;100.00
69667;BME280;66534;52.370;4.832;2023-04-27T00:10:42;102146.97;;;7.45;100.00
69667;BME280;66534;52.370;4.832;2023-04-27T00:11:12;102141.69;;;7.49;100.00
69667;BME280;66534;52.370;4.832;2023-04-27T00:11:42;102146.06;;;7.46;100.00
69667;BME280;66534;52.370;4.832;2023-04-27T00:12:13;102151.34;;;7.41;100.00
69667;BME280;66534;52.370;4.832;2023-04-27T00:12:43;102146.91;;;7.48;100.00
69667;BME280;66534;52.370;4.832;2023-04-27T00:13:13;102151.44;;;7.32;100.00
69667;BME280;66534;52.370;4.832;2023-04-27T00:13:44;102147.19;;;7.19;100.00
69667;BME280;66534;52.370;4.832;2023-04-27T00:14:14;102147.13;;;7.27;100.00
69667;BME280;66534;52.370;4.832;2023-04-27T00:14:45;102147.09;;;7.30;100.00
69667;BME280;66534;52.370;4.832;2023-04-27T00:15:15;102150.50;;;7.38;100.00
69667;BME280;66534;52.370;4.832;2023-04-27T00:15:45;102146.25;;;7.29;100.00
69667;BME280;66534;52.370;4.832;2023-04-27T00:16:16;102155.81;;;7.32;100.00
69667;BME280;66534;52.370;4.832;2023-04-27T00:16:46;102142.75;;;7.30;100.00
69667;BME280;66534;52.370;4.832;2023-04-27T00:17:17;102146.28;;;7.28;100.00
69667;BME280;66534;52.370;4.832;2023-04-27T00:17:47;102150.50;;;7.38;100.00
69667;BME280;66534;52.370;4.832;2023-04-27T00:18:17;102148.78;;;7.37;100.00
69667;BME280;66534;52.370;4.832;2023-04-27T00:18:48;102149.72;;;7.30;100.00
69667;BME280;66534;52.370;4.832;2023-04-27T00:19:18;102148.00;;;7.26;100.00
69667;BME280;66534;52.370;4.832;2023-04-27T00:19:48;102142.81;;;7.24;100.00
69667;BME280;66534;52.370;4.832;2023-04-27T00:20:19;102146.38;;;7.14;100.00
69667;BME280;66534;52.370;4.832;2023-04-27T00:20:49;102149.97;;;7.04;100.00
69667;BME280;66534;52.370;4.832;2023-04-27T00:21:20;102149.09;;;7.02;100.00
69667;BME280;66534;52.370;4.832;2023-04-27T00:21:50;102153.44;;;7.04;100.00
69667;BME280;66534;52.370;4.832;2023-04-27T00:22:21;102148.13;;;7.16;100.00
69667;BME280;66534;52.370;4.832;2023-04-27T00:22:51;102143.84;;;7.06;100.00
69667;BME280;66534;52.370;4.832;2023-04-27T00:23:21;102144.84;;;6.94;100.00
69667;BME280;66534;52.370;4.832;2023-04-27T00:23:53;102142.97;;;7.06;100.00
69667;BME280;66534;52.370;4.832;2023-04-27T00:24:23;102137.81;;;6.99;100.00
69667;BME280;66534;52.370;4.832;2023-04-27T00:24:53;102144.66;;;7.13;100.00
69667;BME280;66534;52.370;4.832;2023-04-27T00:25:24;102141.13;;;7.20;100.00
69667;BME280;66534;52.370;4.832;2023-04-27T00:25:55;102139.31;;;7.28;100.00
69667;BME280;66534;52.370;4.832;2023-04-27T00:26:25;102140.22;;;7.24;100.00
69667;BME280;66534;52.370;4.832;2023-04-27T00:26:55;102134.06;;;7.27;100.00
69667;BME280;66534;52.370;4.832;2023-04-27T00:27:26;102137.56;;;7.29;100.00
69667;BME280;66534;52.370;4.832;2023-04-27T00:27:57;102141.03;;;7.29;100.00
69667;BME280;66534;52.370;4.832;2023-04-27T00:28:27;102138.34;;;7.35;100.00
69667;BME280;66534;52.370;4.832;2023-04-27T00:28:58;102135.72;;;7.40;100.00
69667;BME280;66534;52.370;4.832;2023-04-27T00:29:28;102137.44;;;7.41;100.00
69667;BME280;66534;52.370;4.832;2023-04-27T00:29:58;102136.44;;;7.53;100.00
69667;BME280;66534;52.370;4.832;2023-04-27T00:30:29;102137.22;;;7.61;100.00
69667;BME280;66534;52.370;4.832;2023-04-27T00:30:59;102135.47;;;7.61;100.00
69667;BME280;66534;52.370;4.832;2023-04-27T00:31:32;102138.97;;;7.59;100.00
69667;BME280;66534;52.370;4.832;2023-04-27T00:32:02;102134.69;;;7.53;100.00
69667;BME280;66534;52.370;4.832;2023-04-27T00:32:33;102138.22;;;7.49;100.00
69667;BME280;66534;52.370;4.832;2023-04-27T00:33:03;102140.13;;;7.33;100.00
69667;BME280;66534;52.370;4.832;2023-04-27T00:33:33;102142.72;;;7.33;100.00
69667;BME280;66534;52.370;4.832;2023-04-27T00:34:04;102135.00;;;7.24;100.00
69667;BME280;66534;52.370;4.832;2023-04-27T00:34:34;102141.09;;;7.21;100.00
69667;BME280;66534;52.370;4.832;2023-04-27T00:35:05;102135.16;;;7.06;100.00
69667;BME280;66534;52.370;4.832;2023-04-27T00:35:36;102139.75;;;6.78;100.00
69667;BME280;66534;52.370;4.832;2023-04-27T00:36:07;102141.47;;;6.79;100.00
69667;BME280;66534;52.370;4.832;2023-04-27T00:36:37;102139.66;;;6.85;100.00
69667;BME280;66534;52.370;4.832;2023-04-27T00:37:08;102136.16;;;6.94;100.00
69667;BME280;66534;52.370;4.832;2023-04-27T00:37:39;102143.16;;;6.87;100.00
69667;BME280;66534;52.370;4.832;2023-04-27T00:38:09;102136.16;;;6.94;100.00
69667;BME280;66534;52.370;4.832;2023-04-27T00:38:40;102140.59;;;6.83;100.00
69667;BME280;66534;52.370;4.832;2023-04-27T00:39:11;102145.88;;;6.72;100.00
69667;BME280;66534;52.370;4.832;2023-04-27T00:39:41;102144.97;;;6.76;100.00
69667;BME280;66534;52.370;4.832;2023-04-27T00:40:11;102138.91;;;6.76;100.00
69667;BME280;66534;52.370;4.832;2023-04-27T00:40:42;102140.59;;;6.80;100.00
69667;BME280;66534;52.370;4.832;2023-04-27T00:41:12;102143.22;;;6.77;100.00
69667;BME280;66534;52.370;4.832;2023-04-27T00:41:43;102142.34;;;6.82;100.00
69667;BME280;66534;52.370;4.832;2023-04-27T00:42:13;102139.66;;;6.90;100.00
69667;BME280;66534;52.370;4.832;2023-04-27T00:42:46;102137.94;;;6.87;100.00
69667;BME280;66534;52.370;4.832;2023-04-27T00:43:16;102132.59;;;7.01;100.00
69667;BME280;66534;52.370;4.832;2023-04-27T00:43:47;102140.38;;;7.07;100.00
69667;BME280;66534;52.370;4.832;2023-04-27T00:44:23;102137.00;;;6.93;100.00
69667;BME280;66534;52.370;4.832;2023-04-27T00:44:56;102140.38;;;7.07;100.00
69667;BME280;66534;52.370;4.832;2023-04-27T00:45:27;102145.56;;;7.12;100.00
69667;BME280;66534;52.370;4.832;2023-04-27T00:45:57;102140.41;;;7.04;100.00
69667;BME280;66534;52.370;4.832;2023-04-27T00:46:29;102135.25;;;6.96;100.00
69667;BME280;66534;52.370;4.832;2023-04-27T00:47:00;102135.19;;;7.04;100.00
69667;BME280;66534;52.370;4.832;2023-04-27T00:47:31;102139.53;;;7.02;100.00
69667;BME280;66534;52.370;4.832;2023-04-27T00:48:02;102138.72;;;6.98;100.00
69667;BME280;66534;52.370;4.832;2023-04-27T00:48:32;102132.66;;;6.93;100.00
69667;BME280;66534;52.370;4.832;2023-04-27T00:49:02;102137.13;;;6.79;100.00
69667;BME280;66534;52.370;4.832;2023-04-27T00:49:33;102139.81;;;6.68;100.00
69667;BME280;66534;52.370;4.832;2023-04-27T00:50:04;102145.03;;;6.70;100.00
69667;BME280;66534;52.370;4.832;2023-04-27T00:50:37;102141.47;;;6.82;100.00
69667;BME280;66534;52.370;4.832;2023-04-27T00:51:08;102139.84;;;6.67;100.00
69667;BME280;66534;52.370;4.832;2023-04-27T00:51:39;102140.66;;;6.73;100.00
69667;BME280;66534;52.370;4.832;2023-04-27T00:52:09;102136.28;;;6.79;100.00
69667;BME280;66534;52.370;4.832;2023-04-27T00:52:40;102134.41;;;6.93;100.00
69667;BME280;66534;52.370;4.832;2023-04-27T00:53:11;102130.09;;;6.89;100.00
69667;BME280;66534;52.370;4.832;2023-04-27T00:53:42;102133.47;;;7.03;100.00
69667;BME280;66534;52.370;4.832;2023-04-27T00:54:15;102133.41;;;7.08;100.00
69667;BME280;66534;52.370;4.832;2023-04-27T00:54:49;102135.16;;;7.07;100.00
69667;BME280;66534;52.370;4.832;2023-04-27T00:55:21;102137.81;;;6.99;100.00
69667;BME280;66534;52.370;4.832;2023-04-27T00:55:52;102134.31;;;7.04;100.00
69667;BME280;66534;52.370;4.832;2023-04-27T00:56:22;102135.09;;;7.13;100.00
69667;BME280;66534;52.370;4.832;2023-04-27T00:56:52;102140.31;;;7.10;100.00
69667;BME280;66534;52.370;4.832;2023-04-27T00:57:23;102129.97;;;7.03;100.00
69667;BME280;66534;52.370;4.832;2023-04-27T00:57:53;102135.09;;;7.15;100.00
69667;BME280;66534;52.370;4.832;2023-04-27T00:58:24;102131.47;;;7.27;100.00
69667;BME280;66534;52.370;4.832;2023-04-27T00:58:55;102134.00;;;7.36;100.00
69667;BME280;66534;52.370;4.832;2023-04-27T00:59:25;102132.19;;;7.42;100.00
69667;BME280;66534;52.370;4.832;2023-04-27T00:59:56;102135.78;;;7.32;100.00
69667;BME280;66534;52.370;4.832;2023-04-27T01:00:28;102131.53;;;7.22;100.00
69667;BME280;66534;52.370;4.832;2023-04-27T01:00:59;102133.47;;;7.03;100.00
69667;BME280;66534;52.370;4.832;2023-04-27T01:01:30;102130.94;;;6.91;100.00
69667;BME280;66534;52.370;4.832;2023-04-27T01:02:00;102136.09;;;6.97;100.00
69667;BME280;66534;52.370;4.832;2023-04-27T01:02:34;102136.09;;;6.97;100.00
69667;BME280;66534;52.370;4.832;2023-04-27T01:03:06;102139.56;;;6.97;100.00
69667;BME280;66534;52.370;4.832;2023-04-27T01:03:37;102134.38;;;6.96;100.00
69667;BME280;66534;52.370;4.832;2023-04-27T01:04:07;102130.94;;;6.92;100.00
69667;BME280;66534;52.370;4.832;2023-04-27T01:04:37;102133.56;;;6.91;100.00
69667;BME280;66534;52.370;4.832;2023-04-27T01:05:08;102133.50;;;6.97;100.00
69667;BME280;66534;52.370;4.832;2023-04-27T01:05:39;102138.66;;;7.05;100.00
69667;BME280;66534;52.370;4.832;2023-04-27T01:06:10;102135.09;;;7.13;100.00
69667;BME280;66534;52.370;4.832;2023-04-27T01:06:41;102136.91;;;7.02;100.00
69667;BME280;66534;52.370;4.832;2023-04-27T01:07:11;102140.41;;;7.03;100.00
69667;BME280;66534;52.370;4.832;2023-04-27T01:07:41;102131.72;;;7.01;100.00
69667;BME280;66534;52.370;4.832;2023-04-27T01:08:12;102128.41;;;6.80;100.00
69667;BME280;66534;52.370;4.832;2023-04-27T01:08:42;102132.66;;;6.92;100.00
69667;BME280;66534;52.370;4.832;2023-04-27T01:09:13;102130.94;;;6.92;100.00
69667;BME280;66534;52.370;4.832;2023-04-27T01:09:43;102134.38;;;6.96;100.00
69667;BME280;66534;52.370;4.832;2023-04-27T01:10:13;102133.41;;;7.06;100.00
69667;BME280;66534;52.370;4.832;2023-04-27T01:10:44;102136.84;;;7.11;100.00
69667;BME280;66534;52.370;4.832;2023-04-27T01:11:14;102132.59;;;7.03;100.00
69667;BME280;66534;52.370;4.832;2023-04-27T01:11:45;102136.03;;;7.08;100.00
69667;BME280;66534;52.370;4.832;2023-04-27T01:12:16;102137.66;;;7.16;100.00
69667;BME280;66534;52.370;4.832;2023-04-27T01:12:46;102136.78;;;7.17;100.00
69667;BME280;66534;52.370;4.832;2023-04-27T01:13:17;102142.97;;;7.09;100.00
69667;BME280;66534;52.370;4.832;2023-04-27T01:13:47;102139.44;;;7.13;100.00
69667;BME280;66534;52.370;4.832;2023-04-27T01:14:18;102144.63;;;7.14;100.00
69667;BME280;66534;52.370;4.832;2023-04-27T01:14:48;102141.97;;;7.22;100.00
69667;BME280;66534;52.370;4.832;2023-04-27T01:15:18;102137.56;;;7.26;100.00
69667;BME280;66534;52.370;4.832;2023-04-27T01:15:49;102139.34;;;7.22;100.00
69667;BME280;66534;52.370;4.832;2023-04-27T01:16:19;102138.56;;;7.15;100.00
69667;BME280;66534;52.370;4.832;2023-04-27T01:16:50;102139.41;;;7.16;100.00
69667;BME280;66534;52.370;4.832;2023-04-27T01:17:21;102138.59;;;7.11;100.00
69667;BME280;66534;52.370;4.832;2023-04-27T01:17:58;102139.38;;;7.19;100.00
69667;BME280;66534;52.370;4.832;2023-04-27T01:18:29;102143.72;;;7.21;100.00
69667;BME280;66534;52.370;4.832;2023-04-27T01:19:00;102140.31;;;7.13;100.00
69667;BME280;66534;52.370;4.832;2023-04-27T01:19:30;102135.91;;;7.18;100.00
69667;BME280;66534;52.370;4.832;2023-04-27T01:20:01;102137.59;;;7.24;100.00
69667;BME280;66534;52.370;4.832;2023-04-27T01:20:31;102135.81;;;7.29;100.00
69667;BME280;66534;52.370;4.832;2023-04-27T01:21:02;102137.66;;;7.19;100.00
69667;BME280;66534;52.370;4.832;2023-04-27T01:21:32;102130.78;;;7.08;100.00
69667;BME280;66534;52.370;4.832;2023-04-27T01:22:03;102136.97;;;6.97;100.00
69667;BME280;66534;52.370;4.832;2023-04-27T01:22:33;102130.91;;;6.95;100.00
69667;BME280;66534;52.370;4.832;2023-04-27T01:23:04;102136.13;;;6.95;100.00
69667;BME280;66534;52.370;4.832;2023-04-27T01:23:34;102131.84;;;6.90;100.00
69667;BME280;66534;52.370;4.832;2023-04-27T01:24:05;102129.22;;;6.88;100.00
69667;BME280;66534;52.370;4.832;2023-04-27T01:24:36;102138.06;;;6.73;100.00
69667;BME280;66534;52.370;4.832;2023-04-27T01:25:06;102133.59;;;6.85;100.00
69667;BME280;66534;52.370;4.832;2023-04-27T01:25:37;102135.31;;;6.87;100.00
69667;BME280;66534;52.370;4.832;2023-04-27T01:26:08;102134.44;;;6.85;100.00
69667;BME280;66534;52.370;4.832;2023-04-27T01:26:40;102134.44;;;6.88;100.00
69667;BME280;66534;52.370;4.832;2023-04-27T01:27:11;102129.25;;;6.87;100.00
69667;BME280;66534;52.370;4.832;2023-04-27T01:27:42;102128.41;;;6.83;100.00
69667;BME280;66534;52.370;4.832;2023-04-27T01:28:12;102130.03;;;6.95;100.00
69667;BME280;66534;52.370;4.832;2023-04-27T01:28:43;102128.31;;;6.94;100.00
69667;BME280;66534;52.370;4.832;2023-04-27T01:29:13;102137.91;;;6.90;100.00
69667;BME280;66534;52.370;4.832;2023-04-27T01:29:43;102135.31;;;6.89;100.00
69667;BME280;66534;52.370;4.832;2023-04-27T01:30:14;102132.66;;;6.92;100.00
69667;BME280;66534;52.370;4.832;2023-04-27T01:30:44;102131.78;;;6.93;100.00
69667;BME280;66534;52.370;4.832;2023-04-27T01:31:15;102130.09;;;6.87;100.00
69667;BME280;66534;52.370;4.832;2023-04-27T01:31:45;102128.44;;;6.82;100.00
69667;BME280;66534;52.370;4.832;2023-04-27T01:32:16;102129.25;;;6.87;100.00
69667;BME280;66534;52.370;4.832;2023-04-27T01:32:46;102131.91;;;6.82;100.00
69667;BME280;66534;52.370;4.832;2023-04-27T01:33:16;102122.31;;;6.84;100.00
69667;BME280;66534;52.370;4.832;2023-04-27T01:33:47;102132.72;;;6.87;100.00
69667;BME280;66534;52.370;4.832;2023-04-27T01:34:17;102123.13;;;6.91;100.00
69667;BME280;66534;52.370;4.832;2023-04-27T01:34:48;102121.34;;;6.93;100.00
69667;BME280;66534;52.370;4.832;2023-04-27T01:35:18;102124.75;;;7.03;100.00
69667;BME280;66534;52.370;4.832;2023-04-27T01:35:48;102118.75;;;6.94;100.00
69667;BME280;66534;52.370;4.832;2023-04-27T01:36:19;102114.47;;;6.86;100.00
69667;BME280;66534;52.370;4.832;2023-04-27T01:36:49;102119.72;;;6.80;100.00
69667;BME280;66534;52.370;4.832;2023-04-27T01:37:20;102121.50;;;6.76;100.00
69667;BME280;66534;52.370;4.832;2023-04-27T01:37:50;102121.47;;;6.79;100.00
69667;BME280;66534;52.370;4.832;2023-04-27T01:38:21;102116.25;;;6.81;100.00
69667;BME280;66534;52.370;4.832;2023-04-27T01:38:53;102121.50;;;6.78;100.00
69667;BME280;66534;52.370;4.832;2023-04-27T01:39:23;102118.00;;;6.82;100.00
69667;BME280;66534;52.370;4.832;2023-04-27T01:39:54;102117.09;;;6.84;100.00
69667;BME280;66534;52.370;4.832;2023-04-27T01:40:24;102115.28;;;6.89;100.00
69667;BME280;66534;52.370;4.832;2023-04-27T01:40:54;102113.59;;;6.87;100.00
69667;BME280;66534;52.370;4.832;2023-04-27T01:41:30;102115.31;;;6.88;100.00
69667;BME280;66534;52.370;4.832;2023-04-27T01:42:01;102117.88;;;6.94;100.00
69667;BME280;66534;52.370;4.832;2023-04-27T01:42:32;102115.22;;;7.00;100.00
69667;BME280;66534;52.370;4.832;2023-04-27T01:43:09;102114.28;;;7.06;100.00
69667;BME280;66534;52.370;4.832;2023-04-27T01:43:39;102111.78;;;6.93;100.00
69667;BME280;66534;52.370;4.832;2023-04-27T01:44:11;102113.53;;;6.93;100.00
69667;BME280;66534;52.370;4.832;2023-04-27T01:44:41;102105.84;;;6.76;100.00
69667;BME280;66534;52.370;4.832;2023-04-27T01:45:11;102108.47;;;6.78;100.00
69667;BME280;66534;52.370;4.832;2023-04-27T01:45:42;102108.44;;;6.79;100.00
69667;BME280;66534;52.370;4.832;2023-04-27T01:46:12;102097.94;;;6.87;100.00
69667;BME280;66534;52.370;4.832;2023-04-27T01:46:43;102104.06;;;6.83;100.00
69667;BME280;66534;52.370;4.832;2023-04-27T01:47:14;102104.06;;;6.86;100.00
69667;BME280;66534;52.370;4.832;2023-04-27T01:47:46;102101.38;;;6.92;100.00
69667;BME280;66534;52.370;4.832;2023-04-27T01:48:16;102104.75;;;7.03;100.00
69667;BME280;66534;52.370;4.832;2023-04-27T01:48:46;102103.94;;;6.93;100.00
69667;BME280;66534;52.370;4.832;2023-04-27T01:49:17;102096.19;;;6.90;100.00
69667;BME280;66534;52.370;4.832;2023-04-27T01:49:47;102097.97;;;6.81;100.00
69667;BME280;66534;52.370;4.832;2023-04-27T01:50:18;102102.28;;;6.85;100.00
69667;BME280;66534;52.370;4.832;2023-04-27T01:50:49;102102.25;;;6.89;100.00
69667;BME280;66534;52.370;4.832;2023-04-27T01:51:19;102113.47;;;6.97;100.00
69667;BME280;66534;52.370;4.832;2023-04-27T01:51:50;102098.72;;;6.93;100.00
69667;BME280;66534;52.370;4.832;2023-04-27T01:52:20;102101.50;;;6.78;100.00
69667;BME280;66534;52.370;4.832;2023-04-27T01:52:51;102104.25;;;6.61;100.00
69667;BME280;66534;52.370;4.832;2023-04-27T01:53:21;102109.44;;;6.63;100.00
69667;BME280;66534;52.370;4.832;2023-04-27T01:53:51;102105.84;;;6.76;100.00
69667;BME280;66534;52.370;4.832;2023-04-27T01:54:22;102100.63;;;6.76;100.00
69667;BME280;66534;52.370;4.832;2023-04-27T01:54:52;102100.59;;;6.82;100.00
69667;BME280;66534;52.370;4.832;2023-04-27T01:55:22;102099.63;;;6.92;100.00
69667;BME280;66534;52.370;4.832;2023-04-27T01:55:53;102103.91;;;6.98;100.00
69667;BME280;66534;52.370;4.832;2023-04-27T01:56:23;102101.38;;;6.89;100.00
69667;BME280;66534;52.370;4.832;2023-04-27T01:56:54;102103.09;;;6.94;100.00
69667;BME280;66534;52.370;4.832;2023-04-27T01:57:24;102098.78;;;6.90;100.00
69667;BME280;66534;52.370;4.832;2023-04-27T01:57:55;102105.69;;;6.93;100.00
69667;BME280;66534;52.370;4.832;2023-04-27T01:58:26;102101.38;;;6.92;100.00
69667;BME280;66534;52.370;4.832;2023-04-27T01:58:56;102107.50;;;6.88;100.00
69667;BME280;66534;52.370;4.832;2023-04-27T01:59:27;102101.34;;;6.93;100.00
69667;BME280;66534;52.370;4.832;2023-04-27T01:59:57;102103.06;;;6.99;100.00
69667;BME280;66534;52.370;4.832;2023-04-27T02:00:28;102101.44;;;6.84;100.00
69667;BME280;66534;52.370;4.832;2023-04-27T02:00:58;102098.00;;;6.79;100.00
69667;BME280;66534;52.370;4.832;2023-04-27T02:01:28;102102.25;;;6.91;100.00
69667;BME280;66534;52.370;4.832;2023-04-27T02:02:00;102107.31;;;7.06;100.00
69667;BME280;66534;52.370;4.832;2023-04-27T02:02:30;102102.13;;;7.05;100.00
69667;BME280;66534;52.370;4.832;2023-04-27T02:03:01;102108.38;;;6.87;100.00
69667;BME280;66534;52.370;4.832;2023-04-27T02:03:31;102105.81;;;6.82;100.00
69667;BME280;66534;52.370;4.832;2023-04-27T02:04:02;102097.13;;;6.77;100.00
69667;BME280;66534;52.370;4.832;2023-04-27T02:04:33;102095.38;;;6.81;100.00
69667;BME280;66534;52.370;4.832;2023-04-27T02:05:05;102099.75;;;6.82;100.00
69667;BME280;66534;52.370;4.832;2023-04-27T02:05:36;102100.53;;;6.88;100.00
69667;BME280;66534;52.370;4.832;2023-04-27T02:06:06;102092.69;;;6.91;100.00
69667;BME280;66534;52.370;4.832;2023-04-27T02:06:37;102092.72;;;6.87;100.00
69667;BME280;66534;52.370;4.832;2023-04-27T02:07:07;102092.63;;;6.96;100.00
69667;BME280;66534;52.370;4.832;2023-04-27T02:07:38;102087.47;;;6.91;100.00
69667;BME280;66534;52.370;4.832;2023-04-27T02:08:08;102088.34;;;6.90;100.00
69667;BME280;66534;52.370;4.832;2023-04-27T02:08:38;102090.06;;;6.93;100.00
69667;BME280;66534;52.370;4.832;2023-04-27T02:09:09;102093.56;;;6.89;100.00
69667;BME280;66534;52.370;4.832;2023-04-27T02:09:39;102092.63;;;6.96;100.00
69667;BME280;66534;52.370;4.832;2023-04-27T02:10:10;102088.41;;;6.84;100.00
69667;BME280;66534;52.370;4.832;2023-04-27T02:10:40;102091.97;;;6.74;100.00
69667;BME280;66534;52.370;4.832;2023-04-27T02:11:10;102088.50;;;6.73;100.00
69667;BME280;66534;52.370;4.832;2023-04-27T02:11:41;102085.84;;;6.78;100.00
69667;BME280;66534;52.370;4.832;2023-04-27T02:12:11;102088.41;;;6.84;100.00
69667;BME280;66534;52.370;4.832;2023-04-27T02:12:42;102084.91;;;6.87;100.00
69667;BME280;66534;52.370;4.832;2023-04-27T02:13:12;102097.00;;;6.92;100.00
69667;BME280;66534;52.370;4.832;2023-04-27T02:13:42;102087.44;;;6.93;100.00
69667;BME280;66534;52.370;4.832;2023-04-27T02:14:13;102092.63;;;6.99;100.00
69667;BME280;66534;52.370;4.832;2023-04-27T02:14:43;102096.09;;;6.98;100.00
69667;BME280;66534;52.370;4.832;2023-04-27T02:15:13;102094.50;;;6.80;100.00
69667;BME280;66534;52.370;4.832;2023-04-27T02:15:44;102097.97;;;6.84;100.00
69667;BME280;66534;52.370;4.832;2023-04-27T02:16:15;102099.69;;;6.86;100.00
69667;BME280;66534;52.370;4.832;2023-04-27T02:16:45;102095.22;;;6.97;100.00
69667;BME280;66534;52.370;4.832;2023-04-27T02:17:16;102096.00;;;7.06;100.00
69667;BME280;66534;52.370;4.832;2023-04-27T02:17:46;102097.91;;;6.88;100.00
69667;BME280;66534;52.370;4.832;2023-04-27T02:18:16;102099.94;;;6.56;100.00
69667;BME280;66534;52.370;4.832;2023-04-27T02:18:47;102099.88;;;6.65;100.00
69667;BME280;66534;52.370;4.832;2023-04-27T02:19:18;102099.84;;;6.68;100.00
69667;BME280;66534;52.370;4.832;2023-04-27T02:19:48;102096.38;;;6.67;100.00
69667;BME280;66534;52.370;4.832;2023-04-27T02:20:18;102097.22;;;6.68;100.00
69667;BME280;66534;52.370;4.832;2023-04-27T02:20:49;102095.59;;;6.58;100.00
69667;BME280;66534;52.370;4.832;2023-04-27T02:21:19;102095.63;;;6.50;100.00
69667;BME280;66534;52.370;4.832;2023-04-27T02:21:50;102101.72;;;6.47;100.00
69667;BME280;66534;52.370;4.832;2023-04-27T02:22:21;102094.69;;;6.62;100.00
69667;BME280;66534;52.370;4.832;2023-04-27T02:22:52;102090.16;;;6.81;100.00
69667;BME280;66534;52.370;4.832;2023-04-27T02:23:22;102098.84;;;6.86;100.00
69667;BME280;66534;52.370;4.832;2023-04-27T02:23:53;102095.28;;;6.93;100.00
69667;BME280;66534;52.370;4.832;2023-04-27T02:24:23;102100.47;;;6.96;100.00
69667;BME280;66534;52.370;4.832;2023-04-27T02:24:53;102097.88;;;6.93;100.00
69667;BME280;66534;52.370;4.832;2023-04-27T02:25:24;102094.44;;;6.89;100.00
69667;BME280;66534;52.370;4.832;2023-04-27T02:25:54;102094.41;;;6.92;100.00
69667;BME280;66534;52.370;4.832;2023-04-27T02:26:25;102092.75;;;6.84;100.00
69667;BME280;66534;52.370;4.832;2023-04-27T02:26:58;102099.72;;;6.80;100.00
69667;BME280;66534;52.370;4.832;2023-04-27T02:27:28;102095.41;;;6.79;100.00
69667;BME280;66534;52.370;4.832;2023-04-27T02:27:59;102098.91;;;6.75;100.00
69667;BME280;66534;52.370;4.832;2023-04-27T02:28:30;102098.09;;;6.70;100.00
69667;BME280;66534;52.370;4.832;2023-04-27T02:29:01;102096.34;;;6.70;100.00
69667;BME280;66534;52.370;4.832;2023-04-27T02:29:32;102092.91;;;6.67;100.00
69667;BME280;66534;52.370;4.832;2023-04-27T02:30:04;102101.69;;;6.57;100.00
69667;BME280;66534;52.370;4.832;2023-04-27T02:30:35;102093.69;;;6.75;100.00
69667;BME280;66534;52.370;4.832;2023-04-27T02:31:06;101994.34;;;6.07;100.00
69667;BME280;66534;52.370;4.832;2023-04-27T02:31:36;102092.81;;;6.76;100.00
69667;BME280;66534;52.370;4.832;2023-04-27T02:32:06;102089.31;;;6.82;100.00
69667;BME280;66534;52.370;4.832;2023-04-27T02:32:37;102085.81;;;6.81;100.00
69667;BME280;66534;52.370;4.832;2023-04-27T02:33:07;102090.91;;;6.93;100.00
69667;BME280;66534;52.370;4.832;2023-04-27T02:33:38;102088.25;;;6.99;100.00
69667;BME280;66534;52.370;4.832;2023-04-27T02:34:08;102086.59;;;6.91;100.00
69667;BME280;66534;52.370;4.832;2023-04-27T02:34:39;102090.13;;;6.84;100.00
69667;BME280;66534;52.370;4.832;2023-04-27T02:35:10;102088.41;;;6.83;100.00
69667;BME280;66534;52.370;4.832;2023-04-27T02:35:40;102089.31;;;6.77;100.00
69667;BME280;66534;52.370;4.832;2023-04-27T02:36:11;102086.78;;;6.71;100.00
69667;BME280;66534;52.370;4.832;2023-04-27T02:36:41;102091.13;;;6.70;100.00
69667;BME280;66534;52.370;4.832;2023-04-27T02:37:12;102082.44;;;6.68;100.00
69667;BME280;66534;52.370;4.832;2023-04-27T02:37:42;102086.78;;;6.68;100.00
69667;BME280;66534;52.370;4.832;2023-04-27T02:38:12;102085.06;;;6.70;100.00
69667;BME280;66534;52.370;4.832;2023-04-27T02:38:43;102091.50;;;6.23;100.00
69667;BME280;66534;52.370;4.832;2023-04-27T02:39:13;102094.13;;;6.17;100.00
69667;BME280;66534;52.370;4.832;2023-04-27T02:39:43;102088.19;;;5.87;100.00
69667;BME280;66534;52.370;4.832;2023-04-27T02:40:14;102097.72;;;5.93;100.00
69667;BME280;66534;52.370;4.832;2023-04-27T02:40:44;102091.69;;;5.82;100.00